createdAt,value
2023-01-27T00:00:14.407Z,-0.51
2023-01-27T00:02:42.672Z,-0.51
2023-01-27T00:05:11.645Z,-0.52
2023-01-27T00:07:38.629Z,-0.53
2023-01-27T00:10:06.308Z,-0.54
2023-01-27T00:12:51.072Z,-0.52
2023-01-27T00:15:17.601Z,-0.52
2023-01-27T00:17:44.030Z,-0.49
2023-01-27T00:20:11.343Z,-0.53
2023-01-27T00:22:56.319Z,-0.56
2023-01-27T00:25:22.773Z,-0.55
2023-01-27T00:27:49.200Z,-0.51
2023-01-27T00:30:15.704Z,-0.52
2023-01-27T00:33:00.433Z,-0.53
2023-01-27T00:35:27.515Z,-0.51
2023-01-27T00:37:54.303Z,-0.49
2023-01-27T00:40:20.840Z,-0.49
2023-01-27T00:42:47.271Z,-0.46
2023-01-27T00:45:32.382Z,-0.45
2023-01-27T00:47:58.811Z,-0.47
2023-01-27T00:50:25.250Z,-0.44
2023-01-27T00:52:52.788Z,-0.42
2023-01-27T00:55:19.448Z,-0.39
2023-01-27T00:57:45.938Z,-0.41
2023-01-27T01:00:14.146Z,-0.43
2023-01-27T01:02:40.873Z,-0.51
2023-01-27T01:05:07.700Z,-0.47
2023-01-27T01:07:34.976Z,-0.44
2023-01-27T01:10:01.425Z,-0.45
2023-01-27T01:12:27.897Z,-0.44
2023-01-27T01:14:54.309Z,-0.44
2023-01-27T01:17:21.668Z,-0.44
2023-01-27T01:19:48.313Z,-0.55
2023-01-27T01:22:14.723Z,-0.45
2023-01-27T01:24:41.114Z,-0.45
2023-01-27T01:27:07.500Z,-0.46
2023-01-27T01:29:33.922Z,-0.48
2023-01-27T01:32:00.481Z,-0.48
2023-01-27T01:34:26.954Z,-0.52
2023-01-27T01:36:53.367Z,-0.51
2023-01-27T01:39:19.757Z,-0.51
2023-01-27T01:41:46.936Z,-0.47
2023-01-27T01:44:30.602Z,-0.46
2023-01-27T01:47:00.033Z,-0.54
2023-01-27T01:49:36.506Z,-0.60
2023-01-27T01:52:09.193Z,-0.62
2023-01-27T01:54:43.307Z,-0.60
2023-01-27T01:57:16.389Z,-0.55
2023-01-27T01:59:48.617Z,-0.58
2023-01-27T02:02:19.747Z,-0.53
2023-01-27T02:04:56.378Z,-0.54
2023-01-27T02:07:37.336Z,-0.55
2023-01-27T02:10:04.480Z,-0.61
2023-01-27T02:12:35.528Z,-0.63
2023-01-27T02:15:02.072Z,-0.64
2023-01-27T02:17:28.671Z,-0.61
2023-01-27T02:20:28.663Z,-0.57
2023-01-27T02:23:14.017Z,-0.54
2023-01-27T02:25:44.696Z,-0.54
2023-01-27T02:28:11.092Z,-0.58
2023-01-27T02:30:37.618Z,-0.58
2023-01-27T02:33:11.552Z,-0.57
2023-01-27T02:35:44.086Z,-0.57
2023-01-27T02:38:13.051Z,-0.56
2023-01-27T02:40:40.538Z,-0.57
2023-01-27T02:43:07.094Z,-0.57
2023-01-27T02:45:33.559Z,-0.61
2023-01-27T02:48:01.686Z,-0.55
2023-01-27T02:50:28.652Z,-0.58
2023-01-27T02:52:55.139Z,-0.57
2023-01-27T02:55:22.260Z,-0.57
2023-01-27T02:57:50.940Z,-0.57
2023-01-27T03:00:31.103Z,-0.57
2023-01-27T03:02:57.639Z,-0.56
2023-01-27T03:05:24.674Z,-0.58
2023-01-27T03:07:51.255Z,-0.61
2023-01-27T03:10:19.361Z,-0.62
2023-01-27T03:12:45.847Z,-0.62
2023-01-27T03:15:32.000Z,-0.63
2023-01-27T03:18:13.375Z,-0.61
2023-01-27T03:20:41.165Z,-0.65
2023-01-27T03:23:08.048Z,-0.71
2023-01-27T03:25:35.863Z,-0.77
2023-01-27T03:28:02.781Z,-0.79
2023-01-27T03:30:52.464Z,-0.79
2023-01-27T03:33:24.393Z,-0.80
2023-01-27T03:36:12.270Z,-0.84
2023-01-27T03:39:04.755Z,-0.83
2023-01-27T03:41:50.010Z,-0.86
2023-01-27T03:44:35.224Z,-0.89
2023-01-27T03:47:01.932Z,-0.90
2023-01-27T03:49:28.591Z,-0.90
2023-01-27T03:51:56.118Z,-0.88
2023-01-27T03:54:22.495Z,-0.84
2023-01-27T03:56:49.003Z,-0.82
2023-01-27T03:59:17.070Z,-0.82
2023-01-27T04:01:44.101Z,-0.80
2023-01-27T04:04:29.958Z,-0.78
2023-01-27T04:06:58.791Z,-0.81
2023-01-27T04:09:36.139Z,-0.84
2023-01-27T04:12:05.323Z,-0.86
2023-01-27T04:14:43.827Z,-0.91
2023-01-27T04:17:13.109Z,-0.91
2023-01-27T04:19:39.782Z,-0.87
2023-01-27T04:22:06.913Z,-0.83
2023-01-27T04:24:33.368Z,-0.85
2023-01-27T04:27:05.468Z,-0.88
2023-01-27T04:29:36.097Z,-0.89
2023-01-27T04:32:05.002Z,-0.90
2023-01-27T04:34:32.084Z,-0.91
2023-01-27T04:36:59.538Z,-0.88
2023-01-27T04:39:26.453Z,-0.86
2023-01-27T04:41:52.942Z,-0.83
2023-01-27T04:44:20.286Z,-0.79
2023-01-27T04:46:47.240Z,-0.79
2023-01-27T04:49:13.659Z,-0.83
2023-01-27T04:51:40.115Z,-0.81
2023-01-27T04:54:06.620Z,-0.84
2023-01-27T04:56:35.956Z,-0.87
2023-01-27T04:59:08.207Z,-0.90
2023-01-27T05:01:34.671Z,-0.91
2023-01-27T05:04:01.141Z,-0.91
2023-01-27T05:06:27.821Z,-0.88
2023-01-27T05:08:54.319Z,-0.87
2023-01-27T05:11:21.183Z,-0.85
2023-01-27T05:13:47.981Z,-0.83
2023-01-27T05:16:27.507Z,-0.81
2023-01-27T05:18:54.182Z,-0.76
2023-01-27T05:21:23.354Z,-0.75
2023-01-27T05:23:50.221Z,-0.78
2023-01-27T05:26:22.485Z,-0.81
2023-01-27T05:28:50.661Z,-0.86
2023-01-27T05:31:29.084Z,-0.91
2023-01-27T05:33:57.856Z,-0.91
2023-01-27T05:36:26.012Z,-0.97
2023-01-27T05:38:53.980Z,-0.96
2023-01-27T05:41:20.810Z,-0.97
2023-01-27T05:43:52.016Z,-0.97
2023-01-27T05:46:21.525Z,-0.92
2023-01-27T05:48:50.621Z,-0.93
2023-01-27T05:51:19.422Z,-0.98
2023-01-27T05:53:46.300Z,-1.00
2023-01-27T05:56:18.744Z,-0.95
2023-01-27T05:58:45.488Z,-0.94
2023-01-27T06:01:17.850Z,-0.94
2023-01-27T06:03:45.068Z,-0.92
2023-01-27T06:06:13.462Z,-0.96
2023-01-27T06:08:40.258Z,-0.99
2023-01-27T06:11:07.139Z,-0.99
2023-01-27T06:13:38.537Z,-1.06
2023-01-27T06:16:06.238Z,-1.10
2023-01-27T06:18:33.104Z,-1.16
2023-01-27T06:21:01.124Z,-1.16
2023-01-27T06:23:28.270Z,-1.15
2023-01-27T06:25:56.643Z,-1.16
2023-01-27T06:28:29.152Z,-1.09
2023-01-27T06:30:57.266Z,-1.12
2023-01-27T06:33:23.807Z,-1.12
2023-01-27T06:35:50.264Z,-1.10
2023-01-27T06:38:16.854Z,-1.11
2023-01-27T06:40:44.087Z,-1.08
2023-01-27T06:43:14.224Z,-1.05
2023-01-27T06:45:41.114Z,-1.07
2023-01-27T06:48:11.200Z,-1.17
2023-01-27T06:50:37.660Z,-1.24
2023-01-27T06:53:06.173Z,-1.25
2023-01-27T06:55:33.130Z,-1.25
2023-01-27T06:58:01.324Z,-1.25
2023-01-27T07:00:27.778Z,-1.30
2023-01-27T07:02:57.570Z,-1.32
2023-01-27T07:05:24.632Z,-1.33
2023-01-27T07:07:51.114Z,-1.31
2023-01-27T07:10:17.914Z,-1.30
2023-01-27T07:12:44.358Z,-1.27
2023-01-27T07:15:11.812Z,-1.30
2023-01-27T07:17:38.731Z,-1.38
2023-01-27T07:20:07.964Z,-1.32
2023-01-27T07:22:34.401Z,-1.32
2023-01-27T07:25:01.589Z,-1.40
2023-01-27T07:27:28.194Z,-1.38
2023-01-27T07:29:54.611Z,-1.33
2023-01-27T07:32:21.431Z,-1.26
2023-01-27T07:34:47.831Z,-1.19
2023-01-27T07:37:14.515Z,-1.14
2023-01-27T07:39:40.940Z,-1.08
2023-01-27T07:42:08.572Z,-1.08
2023-01-27T07:44:36.327Z,-1.05
2023-01-27T07:47:02.916Z,-1.06
2023-01-27T07:49:29.549Z,-0.99
2023-01-27T07:51:56.004Z,-1.06
2023-01-27T07:54:22.709Z,-1.05
2023-01-27T07:56:49.125Z,-1.03
2023-01-27T07:59:15.571Z,-0.98
2023-01-27T08:01:43.229Z,-0.92
2023-01-27T08:04:09.899Z,-0.87
2023-01-27T08:06:39.452Z,-0.85
2023-01-27T08:09:06.449Z,-0.89
2023-01-27T08:11:33.360Z,-0.91
2023-01-27T08:13:59.777Z,-0.92
2023-01-27T08:16:26.209Z,-0.95
2023-01-27T08:18:53.899Z,-0.97
2023-01-27T08:21:21.194Z,-0.99
2023-01-27T08:23:47.688Z,-0.99
2023-01-27T08:26:14.293Z,-0.96
2023-01-27T08:28:40.864Z,-0.91
2023-01-27T08:31:11.252Z,-0.90
2023-01-27T08:33:37.834Z,-0.92
2023-01-27T08:36:17.850Z,-0.88
2023-01-27T08:38:45.649Z,-0.86
2023-01-27T08:41:17.813Z,-0.86
2023-01-27T08:43:44.236Z,-0.84
2023-01-27T08:46:11.699Z,-0.81
2023-01-27T08:48:38.619Z,-0.79
2023-01-27T08:51:06.595Z,-0.76
2023-01-27T08:53:33.888Z,-0.67
2023-01-27T08:56:07.249Z,-0.60
2023-01-27T08:58:34.588Z,-0.58
2023-01-27T09:01:02.439Z,-0.60
2023-01-27T09:03:33.355Z,-0.66
2023-01-27T09:06:00.572Z,-0.62
2023-01-27T09:08:27.901Z,-0.65
2023-01-27T09:10:54.432Z,-0.67
2023-01-27T09:13:22.271Z,-0.55
2023-01-27T09:15:52.742Z,-0.49
2023-01-27T09:18:19.953Z,-0.41
2023-01-27T09:20:46.640Z,-0.34
2023-01-27T09:23:13.121Z,-0.36
2023-01-27T09:25:39.679Z,-0.38
2023-01-27T09:28:06.174Z,-0.37
2023-01-27T09:30:32.722Z,-0.38
2023-01-27T09:33:00.365Z,-0.47
2023-01-27T09:35:36.290Z,-0.53
2023-01-27T09:38:04.552Z,-0.54
2023-01-27T09:40:48.952Z,-0.56
2023-01-27T09:43:39.248Z,-0.62
2023-01-27T09:46:27.338Z,-0.67
2023-01-27T09:49:12.439Z,-0.66
2023-01-27T09:52:04.394Z,-0.60
2023-01-27T09:55:09.536Z,-0.54
2023-01-27T09:57:57.061Z,-0.55
2023-01-27T10:00:34.010Z,-0.51
2023-01-27T10:03:15.706Z,-0.52
2023-01-27T10:06:19.938Z,-0.52
2023-01-27T10:09:07.764Z,-0.49
2023-01-27T10:11:40.770Z,-0.47
2023-01-27T10:14:18.598Z,-0.42
2023-01-27T10:17:00.670Z,-0.36
2023-01-27T10:19:46.161Z,-0.29
2023-01-27T10:22:24.476Z,-0.25
2023-01-27T10:25:30.293Z,-0.20
2023-01-27T10:27:58.957Z,-0.13
2023-01-27T10:30:35.409Z,-0.08
2023-01-27T10:33:18.895Z,0.00
2023-01-27T10:35:52.654Z,0.00
2023-01-27T10:38:30.103Z,-0.02
2023-01-27T10:41:02.681Z,-0.11
2023-01-27T10:43:42.599Z,-0.14
2023-01-27T10:46:36.228Z,-0.13
2023-01-27T10:49:46.672Z,-0.08
2023-01-27T10:52:18.204Z,-0.07
2023-01-27T10:54:52.769Z,-0.13
2023-01-27T10:57:27.465Z,-0.21
2023-01-27T11:00:41.870Z,-0.16
2023-01-27T11:03:10.987Z,-0.12
2023-01-27T11:05:41.396Z,-0.07
2023-01-27T11:08:21.193Z,0.00
2023-01-27T11:11:11.501Z,0.05
2023-01-27T11:13:38.916Z,0.08
2023-01-27T11:16:09.475Z,0.03
2023-01-27T11:18:38.631Z,-0.01
2023-01-27T11:21:09.621Z,-0.04
2023-01-27T11:23:46.665Z,0.05
2023-01-27T11:26:27.073Z,0.06
2023-01-27T11:29:09.549Z,0.12
2023-01-27T11:31:50.954Z,0.12
2023-01-27T11:34:35.766Z,0.18
2023-01-27T11:37:13.323Z,0.25
2023-01-27T11:39:39.768Z,0.22
2023-01-27T11:42:06.183Z,0.25
2023-01-27T11:44:34.410Z,0.19
2023-01-27T11:47:03.920Z,0.21
2023-01-27T11:49:36.859Z,0.23
2023-01-27T11:52:15.111Z,0.25
2023-01-27T11:55:05.254Z,0.29
2023-01-27T11:57:31.815Z,0.33
2023-01-27T12:00:07.608Z,0.35
2023-01-27T12:02:44.944Z,0.36
2023-01-27T12:05:17.791Z,0.38
2023-01-27T12:08:01.793Z,0.40
2023-01-27T12:10:39.038Z,0.35
2023-01-27T12:13:19.516Z,0.26
2023-01-27T12:15:58.975Z,0.25
2023-01-27T12:18:25.414Z,0.26
2023-01-27T12:21:04.516Z,0.31
2023-01-27T12:23:39.319Z,0.29
2023-01-27T12:26:11.820Z,0.36
2023-01-27T12:28:41.384Z,0.45
2023-01-27T12:31:20.605Z,0.55
2023-01-27T12:33:58.522Z,0.58
2023-01-27T12:36:25.357Z,0.63
2023-01-27T12:38:54.116Z,0.58
2023-01-27T12:41:42.461Z,0.54
2023-01-27T12:44:16.853Z,0.46
2023-01-27T12:47:02.674Z,0.45
2023-01-27T12:49:34.899Z,0.49
2023-01-27T12:52:04.873Z,0.47
2023-01-27T12:54:32.825Z,0.48
2023-01-27T12:57:05.668Z,0.50
2023-01-27T12:59:33.292Z,0.52
2023-01-27T13:02:17.877Z,0.57
2023-01-27T13:05:00.190Z,0.61
2023-01-27T13:07:34.764Z,0.72
2023-01-27T13:10:04.469Z,0.76
2023-01-27T13:12:47.502Z,0.73
2023-01-27T13:15:19.381Z,0.71
2023-01-27T13:17:50.844Z,0.63
2023-01-27T13:20:23.482Z,0.68
2023-01-27T13:23:14.672Z,0.63
2023-01-27T13:25:50.892Z,0.62
2023-01-27T13:28:23.990Z,0.62
2023-01-27T13:30:56.402Z,0.52
2023-01-27T13:33:47.948Z,0.52
2023-01-27T13:36:33.141Z,0.58
2023-01-27T13:39:18.395Z,0.51
2023-01-27T13:41:56.865Z,0.43
2023-01-27T13:44:36.817Z,0.36
2023-01-27T13:47:11.658Z,0.34
2023-01-27T13:49:44.325Z,0.35
2023-01-27T13:52:11.232Z,0.38
2023-01-27T13:54:37.734Z,0.40
2023-01-27T13:57:22.888Z,0.47
2023-01-27T14:00:19.578Z,0.47
2023-01-27T14:03:13.930Z,0.48
2023-01-27T14:05:53.191Z,0.53
2023-01-27T14:08:35.843Z,0.54
2023-01-27T14:11:27.220Z,0.55
2023-01-27T14:14:09.224Z,0.53
2023-01-27T14:16:50.973Z,0.50
2023-01-27T14:19:35.177Z,0.51
2023-01-27T14:22:20.309Z,0.47
2023-01-27T14:25:00.007Z,0.47
2023-01-27T14:27:34.881Z,0.52
2023-01-27T14:30:27.386Z,0.58
2023-01-27T14:33:12.180Z,0.53
2023-01-27T14:35:38.540Z,0.46
2023-01-27T14:38:11.359Z,0.43
2023-01-27T14:41:20.137Z,0.42
2023-01-27T14:44:01.824Z,0.44
2023-01-27T14:46:50.226Z,0.43
2023-01-27T14:49:54.388Z,0.43
2023-01-27T14:52:37.173Z,0.41
2023-01-27T14:55:21.899Z,0.40
2023-01-27T14:57:56.683Z,0.31
2023-01-27T15:00:54.039Z,0.29
2023-01-27T15:03:24.403Z,0.33
2023-01-27T15:06:01.857Z,0.27
2023-01-27T15:08:52.740Z,0.24
2023-01-27T15:11:43.928Z,0.17
2023-01-27T15:14:48.897Z,0.14
2023-01-27T15:17:33.441Z,0.14
2023-01-27T15:20:18.630Z,0.17
2023-01-27T15:22:53.429Z,0.14
2023-01-27T15:25:39.952Z,0.10
2023-01-27T15:28:13.433Z,-0.01
2023-01-27T15:30:41.410Z,-0.04
2023-01-27T15:33:48.674Z,-0.01
2023-01-27T15:36:32.603Z,-0.01
2023-01-27T15:39:11.317Z,-0.01
2023-01-27T15:41:51.186Z,-0.01
2023-01-27T15:44:32.359Z,-0.09
2023-01-27T15:47:26.173Z,-0.15
2023-01-27T15:50:33.942Z,-0.19
2023-01-27T15:53:04.348Z,-0.24
2023-01-27T15:55:33.555Z,-0.27
2023-01-27T15:58:06.165Z,-0.29
2023-01-27T16:00:38.665Z,-0.30
2023-01-27T16:03:17.230Z,-0.30
2023-01-27T16:05:52.350Z,-0.30
2023-01-27T16:08:20.332Z,-0.31
2023-01-27T16:10:46.843Z,-0.28
2023-01-27T16:13:29.964Z,-0.29
2023-01-27T16:16:18.168Z,-0.29
2023-01-27T16:19:04.705Z,-0.31
2023-01-27T16:21:55.045Z,-0.32
2023-01-27T16:24:32.981Z,-0.37
2023-01-27T16:27:14.704Z,-0.38
2023-01-27T16:30:05.799Z,-0.39
2023-01-27T16:32:42.548Z,-0.33
2023-01-27T16:35:18.482Z,-0.31
2023-01-27T16:38:26.685Z,-0.32
2023-01-27T16:40:59.529Z,-0.35
2023-01-27T16:43:31.801Z,-0.33
2023-01-27T16:46:01.626Z,-0.30
2023-01-27T16:48:46.288Z,-0.27
2023-01-27T16:51:18.500Z,-0.30
2023-01-27T16:53:47.753Z,-0.30
2023-01-27T16:56:27.523Z,-0.29
2023-01-27T16:59:07.372Z,-0.25
2023-01-27T17:01:41.763Z,-0.29
2023-01-27T17:04:19.990Z,-0.29
2023-01-27T17:06:48.912Z,-0.38
2023-01-27T17:09:24.527Z,-0.40
2023-01-27T17:11:51.103Z,-0.36
2023-01-27T17:14:29.905Z,-0.40
2023-01-27T17:17:01.231Z,-0.39
2023-01-27T17:19:31.236Z,-0.41
2023-01-27T17:22:10.039Z,-0.39
2023-01-27T17:24:40.235Z,-0.36
2023-01-27T17:27:24.213Z,-0.37
2023-01-27T17:29:55.313Z,-0.38
2023-01-27T17:32:31.269Z,-0.42
2023-01-27T17:35:00.367Z,-0.40
2023-01-27T17:37:29.416Z,-0.31
2023-01-27T17:39:58.587Z,-0.38
2023-01-27T17:42:34.152Z,-0.37
2023-01-27T17:45:22.651Z,-0.39
2023-01-27T17:47:49.762Z,-0.41
2023-01-27T17:50:25.510Z,-0.44
2023-01-27T17:52:56.216Z,-0.49
2023-01-27T17:55:24.782Z,-0.51
2023-01-27T17:58:04.457Z,-0.53
2023-01-27T18:00:37.998Z,-0.55
2023-01-27T18:03:16.631Z,-0.51
2023-01-27T18:05:45.179Z,-0.49
2023-01-27T18:08:11.703Z,-0.49
2023-01-27T18:10:44.012Z,-0.51
2023-01-27T18:13:37.068Z,-0.49
2023-01-27T18:16:15.933Z,-0.47
2023-01-27T18:18:43.155Z,-0.46
2023-01-27T18:21:09.691Z,-0.43
2023-01-27T18:23:46.640Z,-0.43
2023-01-27T18:26:13.007Z,-0.39
2023-01-27T18:28:40.983Z,-0.39
2023-01-27T18:31:18.583Z,-0.38
2023-01-27T18:33:46.387Z,-0.34
2023-01-27T18:36:22.115Z,-0.34
2023-01-27T18:38:50.552Z,-0.34
2023-01-27T18:41:27.716Z,-0.34
2023-01-27T18:43:55.239Z,-0.32
2023-01-27T18:46:21.987Z,-0.31
2023-01-27T18:48:48.544Z,-0.28
2023-01-27T18:51:16.411Z,-0.30
2023-01-27T18:53:43.148Z,-0.31
2023-01-27T18:56:09.713Z,-0.31
2023-01-27T18:58:36.178Z,-0.33
2023-01-27T19:01:03.560Z,-0.35
2023-01-27T19:03:34.399Z,-0.39
2023-01-27T19:06:01.275Z,-0.33
2023-01-27T19:08:27.882Z,-0.37
2023-01-27T19:10:54.407Z,-0.38
2023-01-27T19:13:20.871Z,-0.35
2023-01-27T19:15:52.655Z,-0.31
2023-01-27T19:18:26.184Z,-0.27
2023-01-27T19:20:53.243Z,-0.23
2023-01-27T19:23:21.032Z,-0.20
2023-01-27T19:25:50.055Z,-0.21
2023-01-27T19:28:23.879Z,-0.23
2023-01-27T19:30:50.544Z,-0.22
2023-01-27T19:33:24.129Z,-0.21
2023-01-27T19:36:10.542Z,-0.21
2023-01-27T19:38:36.975Z,-0.25
2023-01-27T19:41:03.379Z,-0.26
2023-01-27T19:43:29.774Z,-0.25
2023-01-27T19:45:56.242Z,-0.24
2023-01-27T19:48:24.240Z,-0.20
2023-01-27T19:50:52.121Z,-0.20
2023-01-27T19:53:20.041Z,-0.22
2023-01-27T19:55:47.252Z,-0.23
2023-01-27T19:58:25.252Z,-0.22
2023-01-27T20:00:52.988Z,-0.25
2023-01-27T20:03:19.542Z,-0.23
2023-01-27T20:05:46.237Z,-0.23
2023-01-27T20:08:15.714Z,-0.22
2023-01-27T20:10:42.495Z,-0.25
2023-01-27T20:13:17.809Z,-0.32
2023-01-27T20:15:45.576Z,-0.37
2023-01-27T20:18:16.726Z,-0.33
2023-01-27T20:20:44.267Z,-0.33
2023-01-27T20:23:17.404Z,-0.34
2023-01-27T20:25:43.915Z,-0.34
2023-01-27T20:28:12.048Z,-0.28
2023-01-27T20:30:38.844Z,-0.28
2023-01-27T20:33:05.710Z,-0.25
2023-01-27T20:35:32.329Z,-0.29
2023-01-27T20:37:58.953Z,-0.32
2023-01-27T20:40:28.171Z,-0.28
2023-01-27T20:42:54.682Z,-0.31
2023-01-27T20:45:22.116Z,-0.37
2023-01-27T20:47:50.835Z,-0.41
2023-01-27T20:50:18.139Z,-0.44
2023-01-27T20:52:45.192Z,-0.46
2023-01-27T20:55:13.400Z,-0.52
2023-01-27T20:57:40.207Z,-0.50
2023-01-27T21:00:07.615Z,-0.43
2023-01-27T21:02:34.537Z,-0.46
2023-01-27T21:05:00.987Z,-0.45
2023-01-27T21:07:27.549Z,-0.44
2023-01-27T21:09:54.978Z,-0.48
2023-01-27T21:12:21.485Z,-0.51
2023-01-27T21:14:48.048Z,-0.53
2023-01-27T21:17:14.629Z,-0.58
2023-01-27T21:19:41.111Z,-0.54
2023-01-27T21:22:07.553Z,-0.50
2023-01-27T21:24:35.391Z,-0.49
2023-01-27T21:27:01.810Z,-0.48
2023-01-27T21:29:28.304Z,-0.55
2023-01-27T21:31:54.787Z,-0.50
2023-01-27T21:34:21.698Z,-0.49
2023-01-27T21:36:48.335Z,-0.42
2023-01-27T21:39:14.881Z,-0.41
2023-01-27T21:41:53.532Z,-0.43
2023-01-27T21:44:47.435Z,-0.46
2023-01-27T21:47:18.832Z,-0.44
2023-01-27T21:50:01.174Z,-0.42
2023-01-27T21:52:39.498Z,-0.46
2023-01-27T21:55:08.494Z,-0.48
2023-01-27T21:57:35.035Z,-0.43
2023-01-27T22:00:01.580Z,-0.44
2023-01-27T22:02:38.920Z,-0.46
2023-01-27T22:05:05.870Z,-0.45
2023-01-27T22:07:37.992Z,-0.44
2023-01-27T22:10:10.733Z,-0.45
2023-01-27T22:12:37.143Z,-0.47
2023-01-27T22:15:03.900Z,-0.48
2023-01-27T22:17:30.358Z,-0.49
2023-01-27T22:19:56.743Z,-0.44
2023-01-27T22:22:23.169Z,-0.42
2023-01-27T22:24:49.559Z,-0.43
2023-01-27T22:27:15.979Z,-0.43
2023-01-27T22:29:42.411Z,-0.42
2023-01-27T22:32:08.876Z,-0.41
2023-01-27T22:34:35.345Z,-0.41
2023-01-27T22:37:01.856Z,-0.42
2023-01-27T22:39:28.443Z,-0.42
2023-01-27T22:41:54.862Z,-0.42
2023-01-27T22:44:21.301Z,-0.44
2023-01-27T22:46:49.860Z,-0.50
2023-01-27T22:49:16.270Z,-0.43
2023-01-27T22:51:42.911Z,-0.39
2023-01-27T22:54:10.328Z,-0.39
2023-01-27T22:56:36.808Z,-0.39
2023-01-27T22:59:03.954Z,-0.35
2023-01-27T23:01:30.487Z,-0.41
2023-01-27T23:03:56.888Z,-0.30
2023-01-27T23:06:23.339Z,-0.31
2023-01-27T23:08:49.736Z,-0.32
2023-01-27T23:11:16.298Z,-0.35
2023-01-27T23:13:42.778Z,-0.37
2023-01-27T23:16:10.045Z,-0.34
2023-01-27T23:18:36.722Z,-0.34
2023-01-27T23:21:06.358Z,-0.29
2023-01-27T23:23:33.923Z,-0.31
2023-01-27T23:26:00.368Z,-0.29
2023-01-27T23:28:26.916Z,-0.27
2023-01-27T23:30:53.826Z,-0.25
2023-01-27T23:33:20.747Z,-0.25
2023-01-27T23:35:47.699Z,-0.23
2023-01-27T23:38:31.455Z,-0.23
2023-01-27T23:41:03.567Z,-0.27
2023-01-27T23:43:31.033Z,-0.28
2023-01-27T23:45:58.051Z,-0.26
2023-01-27T23:48:24.738Z,-0.24
2023-01-27T23:50:51.142Z,-0.21
2023-01-27T23:53:17.580Z,-0.20
2023-01-27T23:55:44.258Z,-0.19
2023-01-27T23:58:10.704Z,-0.20
